sensor_id;sensor_type;location;lat;lon;timestamp;pressure;altitude;pressure_sealevel;temperature;humidity
77288;BME280;66345;42.694;23.346;2023-04-23T00:00:12;95485.94;;;9.66;68.63
77288;BME280;66345;42.694;23.346;2023-04-23T00:02:38;95472.16;;;9.56;68.57
77288;BME280;66345;42.694;23.346;2023-04-23T00:05:05;95467.41;;;9.66;68.67
77288;BME280;66345;42.694;23.346;2023-04-23T00:07:32;95474.44;;;9.59;68.60
77288;BME280;66345;42.694;23.346;2023-04-23T00:09:58;95473.50;;;9.07;71.09
77288;BME280;66345;42.694;23.346;2023-04-23T00:12:24;95472.59;;;9.15;70.81
77288;BME280;66345;42.694;23.346;2023-04-23T00:14:50;95469.03;;;9.08;71.07
77288;BME280;66345;42.694;23.346;2023-04-23T00:17:17;95483.69;;;8.96;71.53
77288;BME280;66345;42.694;23.346;2023-04-23T00:19:44;95473.47;;;8.93;71.58
77288;BME280;66345;42.694;23.346;2023-04-23T00:22:09;95470.38;;;9.04;71.37
77288;BME280;66345;42.694;23.346;2023-04-23T00:24:34;95473.00;;;9.04;70.77
77288;BME280;66345;42.694;23.346;2023-04-23T00:27:04;95485.25;;;9.05;70.78
77288;BME280;66345;42.694;23.346;2023-04-23T00:29:31;95474.16;;;8.86;71.76
77288;BME280;66345;42.694;23.346;2023-04-23T00:31:57;95480.47;;;8.85;72.00
77288;BME280;66345;42.694;23.346;2023-04-23T00:34:23;95478.59;;;9.09;70.68
77288;BME280;66345;42.694;23.346;2023-04-23T00:36:48;95473.41;;;9.15;69.97
77288;BME280;66345;42.694;23.346;2023-04-23T00:39:14;95471.78;;;9.14;69.87
77288;BME280;66345;42.694;23.346;2023-04-23T00:41:40;95469.47;;;9.11;70.41
77288;BME280;66345;42.694;23.346;2023-04-23T00:44:07;95467.00;;;9.10;70.09
77288;BME280;66345;42.694;23.346;2023-04-23T00:46:34;95471.69;;;9.23;70.28
77288;BME280;66345;42.694;23.346;2023-04-23T00:49:00;95473.84;;;9.04;70.41
77288;BME280;66345;42.694;23.346;2023-04-23T00:51:27;95472.41;;;8.79;71.69
77288;BME280;66345;42.694;23.346;2023-04-23T00:53:53;95476.19;;;8.84;71.21
77288;BME280;66345;42.694;23.346;2023-04-23T00:56:23;95486.75;;;8.84;71.25
77288;BME280;66345;42.694;23.346;2023-04-23T00:58:53;95481.22;;;8.94;70.56
77288;BME280;66345;42.694;23.346;2023-04-23T01:01:21;95477.63;;;8.87;70.23
77288;BME280;66345;42.694;23.346;2023-04-23T01:03:48;95479.28;;;8.88;69.91
77288;BME280;66345;42.694;23.346;2023-04-23T01:06:15;95482.56;;;8.90;69.93
77288;BME280;66345;42.694;23.346;2023-04-23T01:08:42;95474.44;;;8.92;70.25
77288;BME280;66345;42.694;23.346;2023-04-23T01:11:08;95481.91;;;8.88;70.64
77288;BME280;66345;42.694;23.346;2023-04-23T01:13:34;95481.56;;;8.91;70.92
77288;BME280;66345;42.694;23.346;2023-04-23T01:15:59;95474.56;;;8.75;71.41
77288;BME280;66345;42.694;23.346;2023-04-23T01:18:25;95470.66;;;8.71;71.56
77288;BME280;66345;42.694;23.346;2023-04-23T01:20:52;95475.00;;;8.64;71.20
77288;BME280;66345;42.694;23.346;2023-04-23T01:23:18;95463.59;;;8.64;71.94
77288;BME280;66345;42.694;23.346;2023-04-23T01:25:43;95483.75;;;8.65;71.47
77288;BME280;66345;42.694;23.346;2023-04-23T01:28:09;95470.72;;;8.63;71.64
77288;BME280;66345;42.694;23.346;2023-04-23T01:30:35;95477.47;;;8.66;71.34
77288;BME280;66345;42.694;23.346;2023-04-23T01:33:03;95478.72;;;8.55;71.36
77288;BME280;66345;42.694;23.346;2023-04-23T01:35:30;95480.06;;;8.51;71.45
77288;BME280;66345;42.694;23.346;2023-04-23T01:37:58;95484.06;;;8.47;71.72
77288;BME280;66345;42.694;23.346;2023-04-23T01:40:25;95486.47;;;8.56;71.26
77288;BME280;66345;42.694;23.346;2023-04-23T01:42:51;95485.09;;;8.60;71.08
77288;BME280;66345;42.694;23.346;2023-04-23T01:45:16;95486.78;;;8.61;71.05
77288;BME280;66345;42.694;23.346;2023-04-23T01:47:45;95485.81;;;8.54;70.98
77288;BME280;66345;42.694;23.346;2023-04-23T01:50:11;95491.16;;;8.46;71.24
77288;BME280;66345;42.694;23.346;2023-04-23T01:52:36;95487.22;;;8.42;71.06
77288;BME280;66345;42.694;23.346;2023-04-23T01:55:02;95488.50;;;8.46;71.12
77288;BME280;66345;42.694;23.346;2023-04-23T01:57:28;95491.44;;;8.51;70.80
77288;BME280;66345;42.694;23.346;2023-04-23T02:00:00;95488.88;;;8.43;71.29
77288;BME280;66345;42.694;23.346;2023-04-23T02:02:28;95492.16;;;8.45;70.95
77288;BME280;66345;42.694;23.346;2023-04-23T02:04:54;95493.19;;;8.36;71.29
77288;BME280;66345;42.694;23.346;2023-04-23T02:07:21;95492.03;;;8.39;71.15
77288;BME280;66345;42.694;23.346;2023-04-23T02:09:46;95487.81;;;8.21;71.96
77288;BME280;66345;42.694;23.346;2023-04-23T02:12:11;95489.31;;;8.24;71.77
77288;BME280;66345;42.694;23.346;2023-04-23T02:14:37;95487.38;;;8.10;72.06
77288;BME280;66345;42.694;23.346;2023-04-23T02:17:02;95494.00;;;8.05;72.44
77288;BME280;66345;42.694;23.346;2023-04-23T02:19:28;95496.81;;;8.04;72.62
77288;BME280;66345;42.694;23.346;2023-04-23T02:21:55;95501.63;;;8.00;72.37
77288;BME280;66345;42.694;23.346;2023-04-23T02:24:21;95495.25;;;7.87;72.81
77288;BME280;66345;42.694;23.346;2023-04-23T02:26:47;95505.00;;;7.78;73.40
77288;BME280;66345;42.694;23.346;2023-04-23T02:29:13;95504.69;;;7.81;73.44
77288;BME280;66345;42.694;23.346;2023-04-23T02:31:39;95496.72;;;7.89;73.13
77288;BME280;66345;42.694;23.346;2023-04-23T02:34:04;95501.50;;;7.86;72.97
77288;BME280;66345;42.694;23.346;2023-04-23T02:36:29;95498.38;;;7.90;73.11
77288;BME280;66345;42.694;23.346;2023-04-23T02:38:56;95504.47;;;7.91;73.24
77288;BME280;66345;42.694;23.346;2023-04-23T02:41:22;95504.94;;;8.02;72.25
77288;BME280;66345;42.694;23.346;2023-04-23T02:43:47;95486.63;;;7.93;72.23
77288;BME280;66345;42.694;23.346;2023-04-23T02:46:12;95508.25;;;7.96;72.29
77288;BME280;66345;42.694;23.346;2023-04-23T02:48:41;95501.34;;;7.95;72.44
77288;BME280;66345;42.694;23.346;2023-04-23T02:51:09;95503.63;;;7.98;72.34
77288;BME280;66345;42.694;23.346;2023-04-23T02:53:35;95498.00;;;7.93;72.02
77288;BME280;66345;42.694;23.346;2023-04-23T02:56:01;95495.09;;;7.88;72.50
77288;BME280;66345;42.694;23.346;2023-04-23T02:58:27;95507.44;;;7.96;72.10
77288;BME280;66345;42.694;23.346;2023-04-23T03:00:53;95500.66;;;8.01;71.83
77288;BME280;66345;42.694;23.346;2023-04-23T03:03:19;95505.94;;;8.01;71.69
77288;BME280;66345;42.694;23.346;2023-04-23T03:05:45;95501.97;;;7.97;71.88
77288;BME280;66345;42.694;23.346;2023-04-23T03:08:11;95505.00;;;7.86;72.34
77288;BME280;66345;42.694;23.346;2023-04-23T03:10:36;95506.78;;;7.94;71.88
77288;BME280;66345;42.694;23.346;2023-04-23T03:13:02;95503.41;;;7.69;72.98
77288;BME280;66345;42.694;23.346;2023-04-23T03:15:27;95509.31;;;7.79;72.32
77288;BME280;66345;42.694;23.346;2023-04-23T03:17:52;95513.41;;;7.90;72.09
77288;BME280;66345;42.694;23.346;2023-04-23T03:20:19;95511.75;;;7.89;72.79
77288;BME280;66345;42.694;23.346;2023-04-23T03:22:44;95512.75;;;7.88;72.66
77288;BME280;66345;42.694;23.346;2023-04-23T03:25:10;95515.88;;;7.91;72.07
77288;BME280;66345;42.694;23.346;2023-04-23T03:27:38;95507.00;;;7.76;72.36
77288;BME280;66345;42.694;23.346;2023-04-23T03:30:06;95520.53;;;7.81;71.92
77288;BME280;66345;42.694;23.346;2023-04-23T03:32:33;95519.22;;;7.77;71.84
77288;BME280;66345;42.694;23.346;2023-04-23T03:34:58;95525.47;;;7.84;72.02
77288;BME280;66345;42.694;23.346;2023-04-23T03:37:24;95519.53;;;7.82;71.63
77288;BME280;66345;42.694;23.346;2023-04-23T03:39:49;95522.22;;;7.74;72.02
77288;BME280;66345;42.694;23.346;2023-04-23T03:42:15;95511.81;;;7.72;72.07
77288;BME280;66345;42.694;23.346;2023-04-23T03:44:40;95513.91;;;7.85;71.78
77288;BME280;66345;42.694;23.346;2023-04-23T03:47:06;95518.06;;;7.79;71.68
77288;BME280;66345;42.694;23.346;2023-04-23T03:49:31;95518.75;;;7.73;72.13
77288;BME280;66345;42.694;23.346;2023-04-23T03:51:57;95530.47;;;7.79;71.88
77288;BME280;66345;42.694;23.346;2023-04-23T03:54:23;95520.84;;;7.78;71.83
77288;BME280;66345;42.694;23.346;2023-04-23T03:56:49;95526.53;;;7.67;72.26
77288;BME280;66345;42.694;23.346;2023-04-23T03:59:15;95538.19;;;7.89;71.63
77288;BME280;66345;42.694;23.346;2023-04-23T04:01:42;95539.59;;;7.99;71.03
77288;BME280;66345;42.694;23.346;2023-04-23T04:04:07;95540.28;;;7.93;70.87
77288;BME280;66345;42.694;23.346;2023-04-23T04:06:33;95534.34;;;7.91;70.84
77288;BME280;66345;42.694;23.346;2023-04-23T04:08:58;95537.66;;;7.93;70.93
77288;BME280;66345;42.694;23.346;2023-04-23T04:11:23;95530.09;;;7.82;71.08
77288;BME280;66345;42.694;23.346;2023-04-23T04:13:50;95540.28;;;7.93;70.97
77288;BME280;66345;42.694;23.346;2023-04-23T04:16:15;95540.25;;;8.10;70.19
77288;BME280;66345;42.694;23.346;2023-04-23T04:18:43;95542.72;;;8.11;70.27
77288;BME280;66345;42.694;23.346;2023-04-23T04:21:08;95545.03;;;8.06;70.11
77288;BME280;66345;42.694;23.346;2023-04-23T04:23:34;95544.19;;;8.14;69.74
77288;BME280;66345;42.694;23.346;2023-04-23T04:26:00;95544.44;;;8.27;69.41
77288;BME280;66345;42.694;23.346;2023-04-23T04:28:25;95546.78;;;8.22;69.56
77288;BME280;66345;42.694;23.346;2023-04-23T04:30:54;95545.72;;;8.31;69.22
77288;BME280;66345;42.694;23.346;2023-04-23T04:33:21;95550.69;;;8.34;69.40
77288;BME280;66345;42.694;23.346;2023-04-23T04:35:47;95541.13;;;8.33;69.25
77288;BME280;66345;42.694;23.346;2023-04-23T04:38:13;95546.94;;;8.59;69.02
77288;BME280;66345;42.694;23.346;2023-04-23T04:40:40;95549.41;;;8.22;69.98
77288;BME280;66345;42.694;23.346;2023-04-23T04:43:06;95552.41;;;8.19;70.33
77288;BME280;66345;42.694;23.346;2023-04-23T04:45:31;95551.44;;;8.51;69.22
77288;BME280;66345;42.694;23.346;2023-04-23T04:47:56;95560.44;;;8.33;69.94
77288;BME280;66345;42.694;23.346;2023-04-23T04:50:22;95556.97;;;8.33;69.76
77288;BME280;66345;42.694;23.346;2023-04-23T04:52:48;95560.88;;;8.76;68.26
77288;BME280;66345;42.694;23.346;2023-04-23T04:55:14;95561.75;;;8.69;68.94
77288;BME280;66345;42.694;23.346;2023-04-23T04:57:39;95568.22;;;8.66;68.12
77288;BME280;66345;42.694;23.346;2023-04-23T05:00:37;95570.81;;;8.97;67.34
77288;BME280;66345;42.694;23.346;2023-04-23T05:03:03;95559.97;;;9.15;66.54
77288;BME280;66345;42.694;23.346;2023-04-23T05:05:28;95561.47;;;9.32;66.24
77288;BME280;66345;42.694;23.346;2023-04-23T05:07:54;95565.47;;;9.43;65.84
77288;BME280;66345;42.694;23.346;2023-04-23T05:10:23;95565.47;;;9.43;65.70
77288;BME280;66345;42.694;23.346;2023-04-23T05:12:49;95570.06;;;9.49;65.69
77288;BME280;66345;42.694;23.346;2023-04-23T05:15:16;95563.63;;;9.29;66.03
77288;BME280;66345;42.694;23.346;2023-04-23T05:17:41;95573.16;;;9.38;65.99
77288;BME280;66345;42.694;23.346;2023-04-23T05:20:08;95573.28;;;9.74;64.73
77288;BME280;66345;42.694;23.346;2023-04-23T05:22:38;95557.66;;;10.53;62.37
77288;BME280;66345;42.694;23.346;2023-04-23T05:25:04;95567.75;;;10.43;61.98
77288;BME280;66345;42.694;23.346;2023-04-23T05:27:30;95558.44;;;10.68;61.60
77288;BME280;66345;42.694;23.346;2023-04-23T05:29:56;95572.75;;;10.52;61.96
77288;BME280;66345;42.694;23.346;2023-04-23T05:32:21;95576.41;;;10.88;61.04
77288;BME280;66345;42.694;23.346;2023-04-23T05:34:47;95561.44;;;11.23;59.71
77288;BME280;66345;42.694;23.346;2023-04-23T05:37:12;95561.34;;;12.76;55.74
77288;BME280;66345;42.694;23.346;2023-04-23T05:39:37;95553.69;;;14.00;51.46
77288;BME280;66345;42.694;23.346;2023-04-23T05:42:04;95552.38;;;14.29;50.69
77288;BME280;66345;42.694;23.346;2023-04-23T05:44:30;95563.31;;;14.01;51.20
77288;BME280;66345;42.694;23.346;2023-04-23T05:46:55;95557.88;;;15.55;47.34
77288;BME280;66345;42.694;23.346;2023-04-23T05:49:21;95571.19;;;15.37;47.09
77288;BME280;66345;42.694;23.346;2023-04-23T05:51:47;95563.19;;;15.06;47.89
77288;BME280;66345;42.694;23.346;2023-04-23T05:54:12;95563.06;;;16.44;44.78
77288;BME280;66345;42.694;23.346;2023-04-23T05:56:37;95577.41;;;15.31;46.52
77288;BME280;66345;42.694;23.346;2023-04-23T05:59:03;95564.38;;;16.89;43.28
77288;BME280;66345;42.694;23.346;2023-04-23T06:01:28;95576.34;;;15.01;47.93
77288;BME280;66345;42.694;23.346;2023-04-23T06:03:54;95568.81;;;17.14;43.36
77288;BME280;66345;42.694;23.346;2023-04-23T06:06:19;95565.81;;;17.64;42.24
77288;BME280;66345;42.694;23.346;2023-04-23T06:08:44;95568.13;;;16.33;44.76
77288;BME280;66345;42.694;23.346;2023-04-23T06:11:10;95557.69;;;17.40;42.95
77288;BME280;66345;42.694;23.346;2023-04-23T06:13:35;95547.66;;;18.88;39.59
77288;BME280;66345;42.694;23.346;2023-04-23T06:16:06;95562.56;;;19.98;37.29
77288;BME280;66345;42.694;23.346;2023-04-23T06:18:34;95564.53;;;19.12;38.75
77288;BME280;66345;42.694;23.346;2023-04-23T06:20:59;95553.09;;;18.76;39.88
77288;BME280;66345;42.694;23.346;2023-04-23T06:23:29;95549.81;;;19.31;38.58
77288;BME280;66345;42.694;23.346;2023-04-23T06:25:55;95551.59;;;18.45;40.37
77288;BME280;66345;42.694;23.346;2023-04-23T06:28:20;95554.13;;;19.94;37.66
77288;BME280;66345;42.694;23.346;2023-04-23T06:30:46;95552.09;;;19.85;37.86
77288;BME280;66345;42.694;23.346;2023-04-23T06:33:12;95545.31;;;22.49;32.89
77288;BME280;66345;42.694;23.346;2023-04-23T06:35:37;95556.16;;;21.79;34.14
77288;BME280;66345;42.694;23.346;2023-04-23T06:38:03;95549.25;;;22.78;31.95
77288;BME280;66345;42.694;23.346;2023-04-23T06:40:28;95557.25;;;21.78;33.57
77288;BME280;66345;42.694;23.346;2023-04-23T06:42:54;95565.88;;;19.72;37.68
77288;BME280;66345;42.694;23.346;2023-04-23T06:45:20;95556.25;;;20.65;36.29
77288;BME280;66345;42.694;23.346;2023-04-23T06:47:46;95557.63;;;20.45;36.87
77288;BME280;66345;42.694;23.346;2023-04-23T06:50:13;95550.41;;;22.03;34.34
77288;BME280;66345;42.694;23.346;2023-04-23T06:52:40;95550.31;;;21.60;34.42
77288;BME280;66345;42.694;23.346;2023-04-23T06:55:06;95547.66;;;23.60;31.13
77288;BME280;66345;42.694;23.346;2023-04-23T06:57:32;95552.28;;;23.70;30.80
77288;BME280;66345;42.694;23.346;2023-04-23T06:59:57;95546.38;;;21.19;35.22
77288;BME280;66345;42.694;23.346;2023-04-23T07:02:23;95546.88;;;22.02;34.44
77288;BME280;66345;42.694;23.346;2023-04-23T07:04:48;95547.13;;;24.09;30.46
77288;BME280;66345;42.694;23.346;2023-04-23T07:07:14;95546.63;;;21.40;35.26
77288;BME280;66345;42.694;23.346;2023-04-23T07:09:39;95553.97;;;21.00;35.82
77288;BME280;66345;42.694;23.346;2023-04-23T07:12:05;95549.28;;;20.30;38.02
77288;BME280;66345;42.694;23.346;2023-04-23T07:14:31;95537.75;;;24.91;29.57
77288;BME280;66345;42.694;23.346;2023-04-23T07:16:56;95548.34;;;23.15;32.06
77288;BME280;66345;42.694;23.346;2023-04-23T07:19:23;95538.78;;;25.06;29.09
77288;BME280;66345;42.694;23.346;2023-04-23T07:21:48;95541.31;;;24.87;29.06
77288;BME280;66345;42.694;23.346;2023-04-23T07:24:14;95538.06;;;25.84;28.17
77288;BME280;66345;42.694;23.346;2023-04-23T07:26:39;95543.88;;;24.07;30.25
77288;BME280;66345;42.694;23.346;2023-04-23T07:29:05;95541.22;;;22.41;34.01
77288;BME280;66345;42.694;23.346;2023-04-23T07:31:32;95536.53;;;24.23;30.60
77288;BME280;66345;42.694;23.346;2023-04-23T07:33:57;95537.09;;;24.20;30.02
77288;BME280;66345;42.694;23.346;2023-04-23T07:36:23;95530.09;;;25.53;28.66
77288;BME280;66345;42.694;23.346;2023-04-23T07:38:48;95529.44;;;27.73;25.47
77288;BME280;66345;42.694;23.346;2023-04-23T07:41:15;95533.06;;;25.62;27.41
77288;BME280;66345;42.694;23.346;2023-04-23T07:43:41;95524.50;;;26.71;26.27
77288;BME280;66345;42.694;23.346;2023-04-23T07:46:07;95532.56;;;24.95;29.18
77288;BME280;66345;42.694;23.346;2023-04-23T07:48:32;95546.28;;;21.95;34.21
77288;BME280;66345;42.694;23.346;2023-04-23T07:51:01;95534.47;;;22.06;34.28
77288;BME280;66345;42.694;23.346;2023-04-23T07:53:27;95543.59;;;21.36;35.51
77288;BME280;66345;42.694;23.346;2023-04-23T07:55:55;95536.19;;;21.53;35.22
77288;BME280;66345;42.694;23.346;2023-04-23T07:58:22;95551.97;;;19.46;39.07
77288;BME280;66345;42.694;23.346;2023-04-23T08:00:48;95548.31;;;19.52;39.22
77288;BME280;66345;42.694;23.346;2023-04-23T08:03:14;95531.00;;;23.06;32.69
77288;BME280;66345;42.694;23.346;2023-04-23T08:05:40;95541.69;;;24.09;30.78
77288;BME280;66345;42.694;23.346;2023-04-23T08:08:06;95532.13;;;25.77;28.37
77288;BME280;66345;42.694;23.346;2023-04-23T08:10:33;95527.38;;;26.79;26.53
77288;BME280;66345;42.694;23.346;2023-04-23T08:12:58;95527.22;;;29.00;23.89
77288;BME280;66345;42.694;23.346;2023-04-23T08:15:24;95528.09;;;28.22;24.00
77288;BME280;66345;42.694;23.346;2023-04-23T08:17:49;95534.78;;;25.87;26.50
77288;BME280;66345;42.694;23.346;2023-04-23T08:20:14;95541.72;;;24.14;29.15
77288;BME280;66345;42.694;23.346;2023-04-23T08:22:40;95533.81;;;22.74;32.64
77288;BME280;66345;42.694;23.346;2023-04-23T08:25:06;95528.63;;;22.62;32.52
77288;BME280;66345;42.694;23.346;2023-04-23T08:27:31;95527.47;;;21.73;34.24
77288;BME280;66345;42.694;23.346;2023-04-23T08:29:57;95521.88;;;21.53;34.56
77288;BME280;66345;42.694;23.346;2023-04-23T08:32:22;95512.38;;;24.52;29.50
77288;BME280;66345;42.694;23.346;2023-04-23T08:34:48;95507.19;;;24.55;29.30
77288;BME280;66345;42.694;23.346;2023-04-23T08:37:13;95512.44;;;25.06;28.56
77288;BME280;66345;42.694;23.346;2023-04-23T08:39:39;95513.78;;;23.98;29.72
77288;BME280;66345;42.694;23.346;2023-04-23T08:42:23;95518.88;;;22.13;32.61
77288;BME280;66345;42.694;23.346;2023-04-23T08:44:50;95509.19;;;24.04;30.47
77288;BME280;66345;42.694;23.346;2023-04-23T08:47:17;95497.94;;;27.43;25.18
77288;BME280;66345;42.694;23.346;2023-04-23T08:49:44;95491.19;;;27.59;24.67
77288;BME280;66345;42.694;23.346;2023-04-23T08:52:22;95509.16;;;25.54;26.60
77288;BME280;66345;42.694;23.346;2023-04-23T08:54:49;95502.72;;;24.90;27.84
77288;BME280;66345;42.694;23.346;2023-04-23T08:57:17;95499.72;;;22.67;31.72
77288;BME280;66345;42.694;23.346;2023-04-23T08:59:43;95500.22;;;24.08;29.58
77288;BME280;66345;42.694;23.346;2023-04-23T09:02:10;95501.09;;;22.75;31.80
77288;BME280;66345;42.694;23.346;2023-04-23T09:04:36;95494.84;;;21.48;34.43
77288;BME280;66345;42.694;23.346;2023-04-23T09:07:04;95493.34;;;22.94;32.16
77288;BME280;66345;42.694;23.346;2023-04-23T09:09:32;95488.56;;;24.18;29.84
77288;BME280;66345;42.694;23.346;2023-04-23T09:11:58;95478.53;;;28.61;23.43
77288;BME280;66345;42.694;23.346;2023-04-23T09:14:24;95477.09;;;28.36;23.16
77288;BME280;66345;42.694;23.346;2023-04-23T09:16:50;95478.13;;;28.08;24.11
77288;BME280;66345;42.694;23.346;2023-04-23T09:19:17;95469.44;;;28.93;22.57
77288;BME280;66345;42.694;23.346;2023-04-23T09:21:43;95482.16;;;28.10;23.22
77288;BME280;66345;42.694;23.346;2023-04-23T09:24:09;95481.41;;;26.97;24.20
77288;BME280;66345;42.694;23.346;2023-04-23T09:26:46;95471.06;;;26.75;24.86
77288;BME280;66345;42.694;23.346;2023-04-23T09:29:16;95470.72;;;30.04;20.74
77288;BME280;66345;42.694;23.346;2023-04-23T09:31:46;95465.44;;;30.08;21.33
77288;BME280;66345;42.694;23.346;2023-04-23T09:34:15;95481.53;;;27.48;23.17
77288;BME280;66345;42.694;23.346;2023-04-23T09:36:46;95469.41;;;28.38;22.59
77288;BME280;66345;42.694;23.346;2023-04-23T09:39:15;95457.09;;;29.91;20.74
77288;BME280;66345;42.694;23.346;2023-04-23T09:41:41;95478.50;;;24.99;26.33
77288;BME280;66345;42.694;23.346;2023-04-23T09:44:06;95458.88;;;24.62;27.13
77288;BME280;66345;42.694;23.346;2023-04-23T09:46:40;95468.25;;;23.29;29.31
77288;BME280;66345;42.694;23.346;2023-04-23T09:49:07;95452.75;;;25.80;26.57
77288;BME280;66345;42.694;23.346;2023-04-23T09:51:41;95438.22;;;29.22;21.65
77288;BME280;66345;42.694;23.346;2023-04-23T09:56:36;95432.31;;;28.51;21.76
77288;BME280;66345;42.694;23.346;2023-04-23T09:59:27;95433.22;;;30.36;20.18
77288;BME280;66345;42.694;23.346;2023-04-23T10:01:53;95441.44;;;27.49;22.25
77288;BME280;66345;42.694;23.346;2023-04-23T10:04:20;95438.34;;;26.99;22.62
77288;BME280;66345;42.694;23.346;2023-04-23T10:06:53;95432.50;;;26.44;23.81
77288;BME280;66345;42.694;23.346;2023-04-23T10:09:20;95421.75;;;28.99;21.17
77288;BME280;66345;42.694;23.346;2023-04-23T10:11:51;95425.31;;;27.52;22.77
77288;BME280;66345;42.694;23.346;2023-04-23T10:14:18;95419.25;;;30.46;19.40
77288;BME280;66345;42.694;23.346;2023-04-23T10:16:45;95413.88;;;30.72;18.35
77288;BME280;66345;42.694;23.346;2023-04-23T10:19:13;95407.72;;;29.96;19.58
77288;BME280;66345;42.694;23.346;2023-04-23T10:21:40;95406.88;;;28.78;20.45
77288;BME280;66345;42.694;23.346;2023-04-23T10:24:09;95394.97;;;28.74;21.02
77288;BME280;66345;42.694;23.346;2023-04-23T10:26:37;95405.50;;;28.94;20.40
77288;BME280;66345;42.694;23.346;2023-04-23T10:29:04;95406.94;;;28.51;19.50
77288;BME280;66345;42.694;23.346;2023-04-23T10:31:31;95403.03;;;27.13;21.22
77288;BME280;66345;42.694;23.346;2023-04-23T10:33:58;95392.94;;;26.04;22.72
77288;BME280;66345;42.694;23.346;2023-04-23T10:36:26;95393.66;;;27.00;21.19
77288;BME280;66345;42.694;23.346;2023-04-23T10:38:52;95386.78;;;25.64;22.12
77288;BME280;66345;42.694;23.346;2023-04-23T10:41:21;95394.56;;;23.52;24.32
77288;BME280;66345;42.694;23.346;2023-04-23T10:43:52;95400.53;;;23.44;24.84
77288;BME280;66345;42.694;23.346;2023-04-23T10:46:28;95389.28;;;21.17;27.85
77288;BME280;66345;42.694;23.346;2023-04-23T10:49:13;95393.88;;;20.63;29.46
77288;BME280;66345;42.694;23.346;2023-04-23T10:51:44;95377.56;;;20.74;28.46
77288;BME280;66345;42.694;23.346;2023-04-23T10:54:13;95371.25;;;20.91;28.20
77288;BME280;66345;42.694;23.346;2023-04-23T10:56:39;95376.75;;;19.81;29.74
77288;BME280;66345;42.694;23.346;2023-04-23T10:59:07;95372.97;;;19.44;30.71
77288;BME280;66345;42.694;23.346;2023-04-23T11:01:34;95373.88;;;18.82;31.42
77288;BME280;66345;42.694;23.346;2023-04-23T11:04:18;95377.75;;;18.74;30.70
77288;BME280;66345;42.694;23.346;2023-04-23T11:06:49;95377.03;;;18.79;31.21
77288;BME280;66345;42.694;23.346;2023-04-23T11:11:58;95356.25;;;19.25;29.08
77288;BME280;66345;42.694;23.346;2023-04-23T11:14:34;95349.63;;;19.32;28.83
77288;BME280;66345;42.694;23.346;2023-04-23T11:17:01;95337.09;;;19.77;28.93
77288;BME280;66345;42.694;23.346;2023-04-23T11:19:27;95330.91;;;19.98;30.73
77288;BME280;66345;42.694;23.346;2023-04-23T11:22:11;95331.69;;;19.77;30.17
77288;BME280;66345;42.694;23.346;2023-04-23T11:24:38;95323.75;;;19.65;30.24
77288;BME280;66345;42.694;23.346;2023-04-23T11:27:12;95326.22;;;19.88;29.49
77288;BME280;66345;42.694;23.346;2023-04-23T11:29:39;95319.81;;;19.73;29.18
77288;BME280;66345;42.694;23.346;2023-04-23T11:32:05;95325.06;;;20.06;28.99
77288;BME280;66345;42.694;23.346;2023-04-23T11:34:42;95322.81;;;20.47;27.68
77288;BME280;66345;42.694;23.346;2023-04-23T11:37:17;95320.78;;;20.59;27.42
77288;BME280;66345;42.694;23.346;2023-04-23T11:39:45;95320.47;;;20.07;29.21
77288;BME280;66345;42.694;23.346;2023-04-23T11:42:16;95324.72;;;19.42;31.13
77288;BME280;66345;42.694;23.346;2023-04-23T11:44:44;95315.28;;;19.78;30.67
77288;BME280;66345;42.694;23.346;2023-04-23T11:47:12;95314.91;;;20.13;29.81
77288;BME280;66345;42.694;23.346;2023-04-23T11:49:42;95307.34;;;20.10;27.79
77288;BME280;66345;42.694;23.346;2023-04-23T11:52:08;95310.44;;;20.02;27.86
77288;BME280;66345;42.694;23.346;2023-04-23T11:54:34;95306.53;;;19.88;27.66
77288;BME280;66345;42.694;23.346;2023-04-23T11:57:00;95304.22;;;20.23;27.72
77288;BME280;66345;42.694;23.346;2023-04-23T11:59:26;95296.22;;;20.29;27.89
77288;BME280;66345;42.694;23.346;2023-04-23T12:01:54;95299.78;;;20.34;26.82
77288;BME280;66345;42.694;23.346;2023-04-23T12:04:22;95294.50;;;20.71;25.61
77288;BME280;66345;42.694;23.346;2023-04-23T12:06:50;95291.31;;;20.80;27.03
77288;BME280;66345;42.694;23.346;2023-04-23T12:09:19;95286.03;;;20.63;27.01
77288;BME280;66345;42.694;23.346;2023-04-23T12:11:46;95293.06;;;19.88;27.59
77288;BME280;66345;42.694;23.346;2023-04-23T12:14:14;95291.41;;;19.43;27.65
77288;BME280;66345;42.694;23.346;2023-04-23T12:16:44;95303.47;;;18.85;28.61
77288;BME280;66345;42.694;23.346;2023-04-23T12:19:18;95290.97;;;18.96;28.35
77288;BME280;66345;42.694;23.346;2023-04-23T12:21:49;95289.44;;;19.00;27.78
77288;BME280;66345;42.694;23.346;2023-04-23T12:24:15;95279.41;;;18.95;27.63
77288;BME280;66345;42.694;23.346;2023-04-23T12:26:41;95276.78;;;19.17;28.07
77288;BME280;66345;42.694;23.346;2023-04-23T12:29:12;95279.78;;;19.21;26.83
77288;BME280;66345;42.694;23.346;2023-04-23T12:31:38;95277.03;;;19.16;27.76
77288;BME280;66345;42.694;23.346;2023-04-23T12:34:07;95276.75;;;19.56;27.81
77288;BME280;66345;42.694;23.346;2023-04-23T12:36:34;95276.16;;;19.32;27.97
77288;BME280;66345;42.694;23.346;2023-04-23T12:39:29;95275.75;;;19.01;28.71
77288;BME280;66345;42.694;23.346;2023-04-23T12:44:25;95267.75;;;19.45;27.84
77288;BME280;66345;42.694;23.346;2023-04-23T12:47:01;95271.63;;;19.16;28.42
77288;BME280;66345;42.694;23.346;2023-04-23T12:49:31;95268.44;;;19.35;27.70
77288;BME280;66345;42.694;23.346;2023-04-23T12:51:59;95268.88;;;19.10;28.72
77288;BME280;66345;42.694;23.346;2023-04-23T12:54:38;95268.28;;;19.47;28.03
77288;BME280;66345;42.694;23.346;2023-04-23T12:57:06;95264.94;;;19.18;28.20
77288;BME280;66345;42.694;23.346;2023-04-23T12:59:32;95258.00;;;19.61;27.64
77288;BME280;66345;42.694;23.346;2023-04-23T13:01:59;95258.25;;;19.81;27.25